VCTRY47 KNTU-KNTU
Flight info
| Callsign | VCTRY47 |
|---|---|
| Flight time | 1h 4m |
| Altitude | 17000 |
| Route | CANOB KW36A HOBOH ZIBUT KW45A IMELL KW36A ZINEP ROWZO HUGEE HENIP WENID |
| Aircraft | F18/H-A/C |
Departure
| Time | 2026-04-28 06:41 |
|---|---|
| Airport | Oceana Naval Air Station (KNTU) |
Arrival
| Time | 2026-04-28 07:45 |
|---|---|
| Airport | Oceana Naval Air Station (KNTU) |
| Time | Latitude | Longitude | Altitude | Speed | Heading |
|---|---|---|---|---|---|
| 2026-04-28 06:32 | 36.81388 | -76.03442 | 30 ft | 0 kts | 45° |
| 2026-04-28 06:36 | 36.81395 | -76.03434 | 30 ft | 2 kts | 45° |
| 2026-04-28 06:36 | 36.81435 | -76.03406 | 30 ft | 6 kts | 324° |
| 2026-04-28 06:37 | 36.81481 | -76.03469 | 30 ft | 16 kts | 311° |
| 2026-04-28 06:37 | 36.81517 | -76.03529 | 30 ft | 4 kts | 303° |
| 2026-04-28 06:37 | 36.81544 | -76.03582 | 30 ft | 6 kts | 301° |
| 2026-04-28 06:37 | 36.81573 | -76.03626 | 30 ft | 7 kts | 306° |
| 2026-04-28 06:38 | 36.81555 | -76.03679 | 30 ft | 8 kts | 222° |
| 2026-04-28 06:38 | 36.81472 | -76.03772 | 30 ft | 20 kts | 224° |
| 2026-04-28 06:38 | 36.81343 | -76.03917 | 30 ft | 32 kts | 221° |
| 2026-04-28 06:38 | 36.81193 | -76.04085 | 30 ft | 30 kts | 222° |
| 2026-04-28 06:39 | 36.81061 | -76.04233 | 30 ft | 22 kts | 221° |
| 2026-04-28 06:39 | 36.80965 | -76.04343 | 30 ft | 17 kts | 221° |
| 2026-04-28 06:39 | 36.80890 | -76.04427 | 30 ft | 13 kts | 222° |
| 2026-04-28 06:39 | 36.80883 | -76.04501 | 30 ft | 6 kts | 311° |
| 2026-04-28 06:40 | 36.80918 | -76.04544 | 30 ft | 8 kts | 340° |
| 2026-04-28 06:40 | 36.80985 | -76.04500 | 30 ft | 38 kts | 44° |
| 2026-04-28 06:40 | 36.81612 | -76.03807 | 239 ft | 184 kts | 41° |
| 2026-04-28 06:40 | 36.82745 | -76.02557 | 547 ft | 269 kts | 42° |
| 2026-04-28 06:41 | 36.84069 | -76.01012 | 1076 ft | 256 kts | 49° |
| 2026-04-28 06:41 | 36.84859 | -75.99039 | 1795 ft | 258 kts | 78° |
| 2026-04-28 06:41 | 36.84898 | -75.97740 | 2230 ft | 257 kts | 95° |
| 2026-04-28 06:42 | 36.84461 | -75.96131 | 2812 ft | 259 kts | 118° |
| 2026-04-28 06:42 | 36.83157 | -75.94541 | 3577 ft | 272 kts | 147° |
| 2026-04-28 06:43 | 36.81313 | -75.93904 | 4355 ft | 283 kts | 177° |
| 2026-04-28 06:43 | 36.79328 | -75.94067 | 5189 ft | 288 kts | 182° |
| 2026-04-28 06:43 | 36.77315 | -75.94265 | 6028 ft | 293 kts | 182° |
| 2026-04-28 06:43 | 36.75276 | -75.94467 | 6870 ft | 294 kts | 183° |
| 2026-04-28 06:44 | 36.73205 | -75.94673 | 7717 ft | 299 kts | 184° |
| 2026-04-28 06:44 | 36.71114 | -75.94884 | 8581 ft | 306 kts | 184° |
| 2026-04-28 06:44 | 36.68964 | -75.95103 | 9467 ft | 312 kts | 185° |
| 2026-04-28 06:44 | 36.66778 | -75.95320 | 10363 ft | 318 kts | 185° |
| 2026-04-28 06:45 | 36.64574 | -75.95246 | 11249 ft | 323 kts | 169° |
| 2026-04-28 06:45 | 36.62344 | -75.94623 | 12177 ft | 333 kts | 168° |
| 2026-04-28 06:45 | 36.60150 | -75.93980 | 13079 ft | 334 kts | 168° |
| 2026-04-28 06:46 | 36.57915 | -75.93321 | 13999 ft | 341 kts | 168° |
| 2026-04-28 06:46 | 36.55566 | -75.92624 | 14967 ft | 345 kts | 168° |
| 2026-04-28 06:46 | 36.53243 | -75.91931 | 15925 ft | 346 kts | 168° |
| 2026-04-28 06:47 | 36.50898 | -75.91232 | 16894 ft | 354 kts | 168° |
| 2026-04-28 06:47 | 36.48491 | -75.90513 | 17890 ft | 358 kts | 168° |
| 2026-04-28 06:47 | 36.46016 | -75.89769 | 18916 ft | 364 kts | 168° |
| 2026-04-28 06:47 | 36.43561 | -75.89029 | 19931 ft | 371 kts | 168° |
| 2026-04-28 06:48 | 36.41037 | -75.88265 | 20974 ft | 378 kts | 168° |
| 2026-04-28 06:48 | 36.38457 | -75.87484 | 22038 ft | 385 kts | 168° |
| 2026-04-28 06:48 | 36.35856 | -75.86695 | 23105 ft | 381 kts | 168° |
| 2026-04-28 06:48 | 36.33292 | -75.85913 | 24159 ft | 381 kts | 168° |
| 2026-04-28 06:49 | 36.30687 | -75.85118 | 25226 ft | 392 kts | 168° |
| 2026-04-28 06:49 | 36.27999 | -75.84300 | 26319 ft | 403 kts | 168° |
| 2026-04-28 06:49 | 36.25243 | -75.83464 | 27431 ft | 413 kts | 168° |
| 2026-04-28 06:49 | 36.22417 | -75.82608 | 28564 ft | 421 kts | 168° |
| 2026-04-28 06:50 | 36.19558 | -75.81752 | 29699 ft | 427 kts | 171° |
| 2026-04-28 06:50 | 36.16633 | -75.81579 | 30837 ft | 412 kts | 193° |
| 2026-04-28 06:50 | 36.14230 | -75.82502 | 31826 ft | 306 kts | 218° |
| 2026-04-28 06:50 | 36.12915 | -75.83840 | 32251 ft | 191 kts | 231° |
| 2026-04-28 06:51 | 36.11836 | -75.84460 | 30955 ft | 183 kts | 191° |
| 2026-04-28 06:51 | 36.10274 | -75.84581 | 28392 ft | 267 kts | 191° |
| 2026-04-28 06:51 | 36.08173 | -75.84755 | 25204 ft | 359 kts | 187° |
| 2026-04-28 06:51 | 36.06260 | -75.84869 | 21885 ft | 462 kts | 185° |
| 2026-04-28 06:52 | 36.02908 | -75.85454 | 15999 ft | 511 kts | 200° |
| 2026-04-28 06:52 | 35.99703 | -75.87625 | 12055 ft | 522 kts | 221° |
| 2026-04-28 06:52 | 35.97180 | -75.90726 | 8640 ft | 507 kts | 235° |
| 2026-04-28 06:52 | 35.95547 | -75.94511 | 5919 ft | 495 kts | 258° |
| 2026-04-28 06:53 | 35.95367 | -75.98289 | 6808 ft | 401 kts | 278° |
| 2026-04-28 06:53 | 35.96034 | -76.01358 | 7075 ft | 356 kts | 299° |
| 2026-04-28 06:53 | 35.97500 | -76.03789 | 7054 ft | 354 kts | 320° |
| 2026-04-28 06:53 | 35.99582 | -76.05315 | 6993 ft | 347 kts | 343° |
| 2026-04-28 06:54 | 36.01921 | -76.06082 | 7029 ft | 347 kts | 347° |
| 2026-04-28 06:54 | 36.04267 | -76.06802 | 7016 ft | 347 kts | 347° |
| 2026-04-28 06:54 | 36.06609 | -76.07522 | 7017 ft | 347 kts | 347° |
| 2026-04-28 06:54 | 36.08950 | -76.08243 | 7022 ft | 347 kts | 347° |
| 2026-04-28 06:55 | 36.11291 | -76.08963 | 7020 ft | 347 kts | 347° |
| 2026-04-28 06:55 | 36.13640 | -76.09686 | 7019 ft | 347 kts | 347° |
| 2026-04-28 06:55 | 36.15986 | -76.10410 | 7021 ft | 348 kts | 347° |
| 2026-04-28 06:55 | 36.18329 | -76.11133 | 7020 ft | 347 kts | 347° |
| 2026-04-28 06:56 | 36.20675 | -76.11855 | 7019 ft | 347 kts | 347° |
| 2026-04-28 06:56 | 36.23018 | -76.12577 | 7019 ft | 347 kts | 347° |
| 2026-04-28 06:56 | 36.25363 | -76.13302 | 7021 ft | 348 kts | 347° |
| 2026-04-28 06:56 | 36.27750 | -76.14035 | 7022 ft | 369 kts | 347° |
| 2026-04-28 06:57 | 36.30407 | -76.14841 | 7014 ft | 418 kts | 347° |
| 2026-04-28 06:57 | 36.33378 | -76.15736 | 7017 ft | 459 kts | 347° |
| 2026-04-28 06:57 | 36.34139 | -76.15962 | 7023 ft | 467 kts | 348° |
| 2026-04-28 06:57 | 36.37475 | -76.16334 | 7018 ft | 495 kts | 4° |
| 2026-04-28 06:58 | 36.40921 | -76.15500 | 7027 ft | 517 kts | 19° |
| 2026-04-28 06:58 | 36.44127 | -76.13520 | 7018 ft | 528 kts | 34° |
| 2026-04-28 06:58 | 36.46908 | -76.10441 | 7021 ft | 533 kts | 49° |
| 2026-04-28 06:58 | 36.48935 | -76.06576 | 7021 ft | 537 kts | 64° |
| 2026-04-28 06:59 | 36.50077 | -76.02260 | 7021 ft | 540 kts | 78° |
| 2026-04-28 06:59 | 36.50297 | -75.97573 | 7021 ft | 543 kts | 93° |
| 2026-04-28 06:59 | 36.49539 | -75.92975 | 7017 ft | 546 kts | 108° |
| 2026-04-28 06:59 | 36.48134 | -75.88515 | 7033 ft | 547 kts | 109° |
| 2026-04-28 07:00 | 36.46837 | -75.84143 | 7007 ft | 547 kts | 108° |
| 2026-04-28 07:00 | 36.45533 | -75.79693 | 7022 ft | 547 kts | 108° |
| 2026-04-28 07:00 | 36.44232 | -75.75252 | 7019 ft | 547 kts | 108° |
| 2026-04-28 07:00 | 36.42931 | -75.70812 | 7021 ft | 547 kts | 108° |
| 2026-04-28 07:01 | 36.41415 | -75.66475 | 7005 ft | 550 kts | 119° |
| 2026-04-28 07:01 | 36.39097 | -75.62700 | 7034 ft | 553 kts | 134° |
| 2026-04-28 07:01 | 36.36199 | -75.59878 | 7016 ft | 498 kts | 149° |
| 2026-04-28 07:01 | 36.33201 | -75.58407 | 7019 ft | 435 kts | 167° |
| 2026-04-28 07:02 | 36.30372 | -75.58235 | 7019 ft | 384 kts | 187° |
| 2026-04-28 07:02 | 36.28009 | -75.59210 | 7017 ft | 337 kts | 211° |
| 2026-04-28 07:02 | 36.26405 | -75.61028 | 7016 ft | 293 kts | 238° |
| 2026-04-28 07:02 | 36.25696 | -75.63441 | 7031 ft | 333 kts | 265° |
| 2026-04-28 07:03 | 36.25869 | -75.66344 | 7013 ft | 332 kts | 289° |
| 2026-04-28 07:03 | 36.26785 | -75.68970 | 7037 ft | 332 kts | 298° |
| 2026-04-28 07:03 | 36.27777 | -75.71550 | 7010 ft | 331 kts | 298° |
| 2026-04-28 07:03 | 36.28768 | -75.74131 | 7016 ft | 331 kts | 298° |
| 2026-04-28 07:04 | 36.29759 | -75.76711 | 7025 ft | 331 kts | 298° |
| 2026-04-28 07:04 | 36.30748 | -75.79288 | 7019 ft | 331 kts | 298° |
| 2026-04-28 07:04 | 36.31738 | -75.81866 | 7019 ft | 334 kts | 298° |
| 2026-04-28 07:04 | 36.32732 | -75.84452 | 7024 ft | 332 kts | 297° |
| 2026-04-28 07:05 | 36.33726 | -75.87037 | 7019 ft | 332 kts | 298° |
| 2026-04-28 07:05 | 36.34719 | -75.89616 | 7020 ft | 332 kts | 298° |
| 2026-04-28 07:05 | 36.35694 | -75.92207 | 7021 ft | 332 kts | 297° |
| 2026-04-28 07:05 | 36.36666 | -75.94803 | 7024 ft | 331 kts | 297° |
| 2026-04-28 07:06 | 36.37645 | -75.97393 | 7017 ft | 333 kts | 297° |
| 2026-04-28 07:06 | 36.38605 | -76.00010 | 7019 ft | 332 kts | 296° |
| 2026-04-28 07:06 | 36.39592 | -76.02599 | 7006 ft | 331 kts | 304° |
| 2026-04-28 07:06 | 36.41141 | -76.04647 | 7022 ft | 325 kts | 328° |
| 2026-04-28 07:07 | 36.43210 | -76.05693 | 7024 ft | 321 kts | 352° |
| 2026-04-28 07:07 | 36.45391 | -76.05581 | 7014 ft | 319 kts | 15° |
| 2026-04-28 07:07 | 36.47352 | -76.04345 | 7027 ft | 319 kts | 40° |
| 2026-04-28 07:07 | 36.48708 | -76.02183 | 7022 ft | 321 kts | 64° |
| 2026-04-28 07:08 | 36.49206 | -75.99482 | 7015 ft | 325 kts | 88° |
| 2026-04-28 07:08 | 36.48754 | -75.96734 | 7033 ft | 330 kts | 108° |
| 2026-04-28 07:08 | 36.47926 | -75.94068 | 7023 ft | 330 kts | 108° |
| 2026-04-28 07:08 | 36.47105 | -75.91418 | 7008 ft | 329 kts | 108° |
| 2026-04-28 07:09 | 36.46283 | -75.88762 | 7023 ft | 331 kts | 108° |
| 2026-04-28 07:09 | 36.45456 | -75.86094 | 7024 ft | 330 kts | 108° |
| 2026-04-28 07:09 | 36.44631 | -75.83431 | 7023 ft | 330 kts | 108° |
| 2026-04-28 07:09 | 36.43784 | -75.80784 | 7015 ft | 331 kts | 114° |
| 2026-04-28 07:10 | 36.42358 | -75.78533 | 7012 ft | 337 kts | 139° |
| 2026-04-28 07:10 | 36.40280 | -75.77165 | 7033 ft | 343 kts | 162° |
| 2026-04-28 07:10 | 36.37907 | -75.76924 | 7020 ft | 346 kts | 187° |
| 2026-04-28 07:10 | 36.35639 | -75.77867 | 7016 ft | 347 kts | 211° |
| 2026-04-28 07:11 | 36.33854 | -75.79837 | 7022 ft | 344 kts | 235° |
| 2026-04-28 07:11 | 36.32851 | -75.82495 | 7021 ft | 340 kts | 259° |
| 2026-04-28 07:11 | 36.32799 | -75.85135 | 7014 ft | 277 kts | 286° |
| 2026-04-28 07:11 | 36.33542 | -75.87322 | 7045 ft | 276 kts | 299° |
| 2026-04-28 07:12 | 36.34381 | -75.89454 | 7013 ft | 274 kts | 299° |
| 2026-04-28 07:12 | 36.35217 | -75.91580 | 7008 ft | 274 kts | 299° |
| 2026-04-28 07:12 | 36.36060 | -75.93713 | 7026 ft | 275 kts | 299° |
| 2026-04-28 07:12 | 36.36911 | -75.95841 | 7023 ft | 275 kts | 299° |
| 2026-04-28 07:13 | 36.37759 | -75.97968 | 7016 ft | 277 kts | 298° |
| 2026-04-28 07:13 | 36.38594 | -76.00073 | 7019 ft | 275 kts | 300° |
| 2026-04-28 07:13 | 36.39545 | -76.02167 | 7009 ft | 273 kts | 308° |
| 2026-04-28 07:13 | 36.40946 | -76.03637 | 7011 ft | 267 kts | 338° |
| 2026-04-28 07:14 | 36.42740 | -76.04296 | 7034 ft | 268 kts | 338° |
| 2026-04-28 07:14 | 36.44480 | -76.04920 | 7009 ft | 263 kts | 0° |
| 2026-04-28 07:14 | 36.46239 | -76.04402 | 7016 ft | 262 kts | 30° |
| 2026-04-28 07:14 | 36.47603 | -76.02855 | 7044 ft | 264 kts | 49° |
| 2026-04-28 07:15 | 36.48775 | -76.01146 | 7024 ft | 263 kts | 48° |
| 2026-04-28 07:15 | 36.49977 | -75.99397 | 7006 ft | 261 kts | 48° |
| 2026-04-28 07:15 | 36.51137 | -75.97700 | 7022 ft | 262 kts | 48° |
| 2026-04-28 07:15 | 36.52235 | -75.95858 | 7002 ft | 263 kts | 64° |
| 2026-04-28 07:16 | 36.52551 | -75.93610 | 7017 ft | 270 kts | 93° |
| 2026-04-28 07:16 | 36.51926 | -75.91439 | 7033 ft | 276 kts | 122° |
| 2026-04-28 07:16 | 36.50481 | -75.89843 | 7022 ft | 284 kts | 150° |
| 2026-04-28 07:16 | 36.48540 | -75.89277 | 7014 ft | 288 kts | 180° |
| 2026-04-28 07:17 | 36.46637 | -75.89891 | 7020 ft | 290 kts | 209° |
| 2026-04-28 07:17 | 36.45143 | -75.91545 | 7031 ft | 289 kts | 234° |
| 2026-04-28 07:17 | 36.43967 | -75.93565 | 7029 ft | 288 kts | 235° |
| 2026-04-28 07:17 | 36.42798 | -75.95575 | 7006 ft | 287 kts | 236° |
| 2026-04-28 07:18 | 36.41633 | -75.97595 | 7019 ft | 289 kts | 236° |
| 2026-04-28 07:18 | 36.40470 | -75.99620 | 7025 ft | 287 kts | 236° |
| 2026-04-28 07:18 | 36.39287 | -76.01626 | 7018 ft | 289 kts | 234° |
| 2026-04-28 07:18 | 36.38435 | -76.03832 | 6998 ft | 283 kts | 261° |
| 2026-04-28 07:19 | 36.38519 | -76.06229 | 7031 ft | 279 kts | 290° |
| 2026-04-28 07:19 | 36.39497 | -76.08239 | 7041 ft | 273 kts | 319° |
| 2026-04-28 07:19 | 36.41102 | -76.09375 | 7007 ft | 265 kts | 348° |
| 2026-04-28 07:19 | 36.42915 | -76.09349 | 7025 ft | 263 kts | 17° |
| 2026-04-28 07:20 | 36.44472 | -76.08197 | 7017 ft | 263 kts | 46° |
| 2026-04-28 07:20 | 36.45454 | -76.06285 | 7015 ft | 264 kts | 53° |
| 2026-04-28 07:20 | 36.46629 | -76.04541 | 7033 ft | 264 kts | 48° |
| 2026-04-28 07:20 | 36.47817 | -76.02811 | 7013 ft | 263 kts | 49° |
| 2026-04-28 07:21 | 36.48762 | -76.00886 | 6997 ft | 265 kts | 72° |
| 2026-04-28 07:21 | 36.48810 | -75.98592 | 7030 ft | 271 kts | 101° |
| 2026-04-28 07:21 | 36.47915 | -75.96527 | 7029 ft | 279 kts | 131° |
| 2026-04-28 07:22 | 36.44306 | -75.95041 | 7016 ft | 289 kts | 190° |
| 2026-04-28 07:22 | 36.42486 | -75.96034 | 7023 ft | 289 kts | 219° |
| 2026-04-28 07:22 | 36.41235 | -75.97958 | 7046 ft | 287 kts | 239° |
| 2026-04-28 07:22 | 36.40111 | -76.00011 | 7020 ft | 289 kts | 237° |
| 2026-04-28 07:23 | 36.38947 | -76.02029 | 7000 ft | 288 kts | 230° |
| 2026-04-28 07:23 | 36.37364 | -76.03519 | 7006 ft | 288 kts | 204° |
| 2026-04-28 07:23 | 36.35427 | -76.04073 | 7038 ft | 287 kts | 179° |
| 2026-04-28 07:23 | 36.33495 | -76.03600 | 7027 ft | 283 kts | 154° |
| 2026-04-28 07:24 | 36.31920 | -76.02193 | 7011 ft | 279 kts | 128° |
| 2026-04-28 07:24 | 36.30593 | -76.00447 | 7026 ft | 283 kts | 140° |
| 2026-04-28 07:24 | 36.29037 | -75.98954 | 7030 ft | 281 kts | 140° |
| 2026-04-28 07:24 | 36.27495 | -75.97477 | 7013 ft | 281 kts | 140° |
| 2026-04-28 07:25 | 36.25940 | -75.95987 | 7015 ft | 281 kts | 140° |
| 2026-04-28 07:25 | 36.24389 | -75.94501 | 7024 ft | 282 kts | 140° |
| 2026-04-28 07:25 | 36.23293 | -75.93450 | 7022 ft | 282 kts | 140° |
| 2026-04-28 07:25 | 36.21814 | -75.92034 | 7019 ft | 282 kts | 140° |
| 2026-04-28 07:26 | 36.20264 | -75.90550 | 7019 ft | 281 kts | 140° |
| 2026-04-28 07:26 | 36.18719 | -75.89070 | 7021 ft | 281 kts | 140° |
| 2026-04-28 07:26 | 36.17175 | -75.87593 | 7020 ft | 281 kts | 140° |
| 2026-04-28 07:26 | 36.15739 | -75.85966 | 7002 ft | 278 kts | 123° |
| 2026-04-28 07:27 | 36.14961 | -75.83822 | 7022 ft | 272 kts | 98° |
| 2026-04-28 07:27 | 36.15008 | -75.81520 | 7029 ft | 266 kts | 72° |
| 2026-04-28 07:27 | 36.15853 | -75.79526 | 7018 ft | 263 kts | 47° |
| 2026-04-28 07:27 | 36.17322 | -75.78224 | 7017 ft | 261 kts | 21° |
| 2026-04-28 07:28 | 36.19105 | -75.77885 | 7021 ft | 263 kts | 356° |
| 2026-04-28 07:28 | 36.20840 | -75.78580 | 7021 ft | 267 kts | 330° |
| 2026-04-28 07:28 | 36.22250 | -75.80099 | 7036 ft | 270 kts | 318° |
| 2026-04-28 07:28 | 36.23585 | -75.81743 | 7022 ft | 270 kts | 318° |
| 2026-04-28 07:29 | 36.24917 | -75.83386 | 7010 ft | 270 kts | 318° |
| 2026-04-28 07:29 | 36.26246 | -75.85031 | 7020 ft | 270 kts | 317° |
| 2026-04-28 07:29 | 36.27576 | -75.86683 | 7024 ft | 270 kts | 317° |
| 2026-04-28 07:29 | 36.28906 | -75.88341 | 7019 ft | 272 kts | 317° |
| 2026-04-28 07:30 | 36.30229 | -75.89998 | 7020 ft | 270 kts | 317° |
| 2026-04-28 07:30 | 36.31550 | -75.91663 | 7017 ft | 272 kts | 317° |
| 2026-04-28 07:30 | 36.32870 | -75.93331 | 7020 ft | 270 kts | 317° |
| 2026-04-28 07:30 | 36.34185 | -75.95000 | 7020 ft | 271 kts | 317° |
| 2026-04-28 07:31 | 36.35499 | -75.96689 | 7017 ft | 271 kts | 316° |
| 2026-04-28 07:31 | 36.36801 | -75.98382 | 7018 ft | 271 kts | 317° |
| 2026-04-28 07:31 | 36.38091 | -76.00043 | 7022 ft | 271 kts | 315° |
| 2026-04-28 07:31 | 36.39355 | -76.01789 | 7023 ft | 273 kts | 311° |
| 2026-04-28 07:32 | 36.40142 | -76.03937 | 7000 ft | 281 kts | 280° |
| 2026-04-28 07:32 | 36.39912 | -76.06338 | 7039 ft | 288 kts | 249° |
| 2026-04-28 07:32 | 36.38732 | -76.08323 | 7023 ft | 290 kts | 218° |
| 2026-04-28 07:32 | 36.36910 | -76.09315 | 7012 ft | 288 kts | 187° |
| 2026-04-28 07:33 | 36.34946 | -76.09043 | 7026 ft | 285 kts | 159° |
| 2026-04-28 07:33 | 36.32988 | -76.08703 | 7013 ft | 288 kts | 185° |
| 2026-04-28 07:33 | 36.31103 | -76.09524 | 7013 ft | 289 kts | 210° |
| 2026-04-28 07:33 | 36.29201 | -76.10270 | 7009 ft | 290 kts | 180° |
| 2026-04-28 07:34 | 36.27271 | -76.09741 | 7017 ft | 284 kts | 149° |
| 2026-04-28 07:34 | 36.25871 | -76.08139 | 6983 ft | 277 kts | 119° |
| 2026-04-28 07:34 | 36.25305 | -76.05900 | 5912 ft | 278 kts | 87° |
| 2026-04-28 07:34 | 36.25792 | -76.03566 | 4311 ft | 289 kts | 59° |
| 2026-04-28 07:35 | 36.27238 | -76.01935 | 3556 ft | 270 kts | 22° |
| 2026-04-28 07:35 | 36.28968 | -76.01737 | 3775 ft | 248 kts | 351° |
| 2026-04-28 07:35 | 36.30514 | -76.02774 | 3840 ft | 261 kts | 319° |
| 2026-04-28 07:35 | 36.31418 | -76.04750 | 3778 ft | 272 kts | 287° |
| 2026-04-28 07:36 | 36.31345 | -76.07084 | 3750 ft | 278 kts | 253° |
| 2026-04-28 07:36 | 36.30538 | -76.09267 | 3804 ft | 278 kts | 255° |
| 2026-04-28 07:36 | 36.30427 | -76.11616 | 3790 ft | 270 kts | 285° |
| 2026-04-28 07:36 | 36.31215 | -76.13689 | 3759 ft | 264 kts | 315° |
| 2026-04-28 07:37 | 36.32675 | -76.14958 | 3782 ft | 256 kts | 344° |
| 2026-04-28 07:37 | 36.34388 | -76.15144 | 3789 ft | 246 kts | 12° |
| 2026-04-28 07:37 | 36.36074 | -76.14728 | 3801 ft | 249 kts | 13° |
| 2026-04-28 07:37 | 36.37748 | -76.14321 | 3765 ft | 251 kts | 13° |
| 2026-04-28 07:38 | 36.39438 | -76.13910 | 3768 ft | 246 kts | 13° |
| 2026-04-28 07:38 | 36.41125 | -76.13499 | 3797 ft | 249 kts | 13° |
| 2026-04-28 07:38 | 36.42820 | -76.13088 | 3785 ft | 246 kts | 13° |
| 2026-04-28 07:38 | 36.44505 | -76.12680 | 3766 ft | 248 kts | 13° |
| 2026-04-28 07:39 | 36.46204 | -76.12268 | 3789 ft | 248 kts | 13° |
| 2026-04-28 07:39 | 36.47884 | -76.11862 | 3787 ft | 246 kts | 13° |
| 2026-04-28 07:39 | 36.49580 | -76.11451 | 3778 ft | 249 kts | 13° |
| 2026-04-28 07:39 | 36.51272 | -76.11038 | 3779 ft | 246 kts | 13° |
| 2026-04-28 07:40 | 36.52962 | -76.10625 | 3785 ft | 248 kts | 13° |
| 2026-04-28 07:40 | 36.54641 | -76.10213 | 3788 ft | 247 kts | 13° |
| 2026-04-28 07:40 | 36.56339 | -76.09798 | 3775 ft | 252 kts | 13° |
| 2026-04-28 07:40 | 36.58053 | -76.09375 | 3783 ft | 252 kts | 14° |
| 2026-04-28 07:41 | 36.59739 | -76.08903 | 3783 ft | 247 kts | 19° |
| 2026-04-28 07:41 | 36.61409 | -76.08377 | 3777 ft | 250 kts | 13° |
| 2026-04-28 07:41 | 36.63112 | -76.07946 | 3784 ft | 249 kts | 13° |
| 2026-04-28 07:41 | 36.64808 | -76.07527 | 3782 ft | 251 kts | 13° |
| 2026-04-28 07:42 | 36.65967 | -76.07239 | 3772 ft | 251 kts | 13° |
| 2026-04-28 07:42 | 36.67656 | -76.06813 | 3784 ft | 249 kts | 13° |
| 2026-04-28 07:42 | 36.68800 | -76.06527 | 3784 ft | 249 kts | 13° |
| 2026-04-28 07:42 | 36.69778 | -76.06282 | 3780 ft | 251 kts | 13° |
| 2026-04-28 07:43 | 36.71489 | -76.05853 | 3771 ft | 250 kts | 9° |
| 2026-04-28 07:43 | 36.73244 | -76.06255 | 3008 ft | 264 kts | 343° |
| 2026-04-28 07:43 | 36.74845 | -76.07038 | 2589 ft | 224 kts | 343° |
| 2026-04-28 07:43 | 36.76154 | -76.07577 | 2169 ft | 173 kts | 346° |
| 2026-04-28 07:44 | 36.77254 | -76.07870 | 1315 ft | 155 kts | 3° |
| 2026-04-28 07:44 | 36.78206 | -76.07530 | 730 ft | 138 kts | 29° |
| 2026-04-28 07:44 | 36.78958 | -76.06805 | 530 ft | 132 kts | 41° |
| 2026-04-28 07:44 | 36.79652 | -76.06015 | 375 ft | 134 kts | 42° |
| 2026-04-28 07:45 | 36.80349 | -76.05221 | 135 ft | 136 kts | 42° |
| 2026-04-28 07:45 | 36.81019 | -76.04461 | 31 ft | 111 kts | 43° |
| 2026-04-28 07:45 | 36.81289 | -76.04153 | 30 ft | 23 kts | 42° |
| 2026-04-28 07:45 | 36.81357 | -76.04066 | 30 ft | 4 kts | 79° |
| 2026-04-28 07:46 | 36.81341 | -76.04019 | 30 ft | 9 kts | 134° |
| 2026-04-28 07:46 | 36.81288 | -76.03947 | 30 ft | 14 kts | 132° |
| 2026-04-28 07:46 | 36.81247 | -76.03891 | 30 ft | 4 kts | 132° |
| 2026-04-28 07:46 | 36.81192 | -76.03819 | 30 ft | 14 kts | 133° |
| 2026-04-28 07:47 | 36.81173 | -76.03742 | 30 ft | 13 kts | 84° |
| 2026-04-28 07:47 | 36.81199 | -76.03678 | 30 ft | 8 kts | 41° |
| 2026-04-28 07:47 | 36.81201 | -76.03676 | 30 ft | 0 kts | 41° |